sensor_id;sensor_type;location;lat;lon;timestamp;temperature;humidity
79694;DHT22;69165;52.714;13.200;2023-06-22T05:01:04;19.10;99.90
79694;DHT22;69165;52.714;13.200;2023-06-22T05:03:05;19.10;99.90
79694;DHT22;69165;52.714;13.200;2023-06-22T05:05:07;19.20;99.90
79694;DHT22;69165;52.714;13.200;2023-06-22T05:07:09;19.30;99.90
79694;DHT22;69165;52.714;13.200;2023-06-22T05:09:10;19.30;99.90
79694;DHT22;69165;52.714;13.200;2023-06-22T05:11:12;19.40;99.90
79694;DHT22;69165;52.714;13.200;2023-06-22T05:13:13;19.70;99.90
79694;DHT22;69165;52.714;13.200;2023-06-22T05:15:15;20.00;99.90
79694;DHT22;69165;52.714;13.200;2023-06-22T05:17:16;19.90;99.90
79694;DHT22;69165;52.714;13.200;2023-06-22T05:19:17;20.00;99.90
79694;DHT22;69165;52.714;13.200;2023-06-22T05:21:21;20.00;99.90
79694;DHT22;69165;52.714;13.200;2023-06-22T05:23:20;20.00;99.90
79694;DHT22;69165;52.714;13.200;2023-06-22T05:25:22;20.00;99.90
79694;DHT22;69165;52.714;13.200;2023-06-22T05:27:23;20.00;99.90
79694;DHT22;69165;52.714;13.200;2023-06-22T05:29:24;20.00;99.90
79694;DHT22;69165;52.714;13.200;2023-06-22T05:31:26;20.10;99.90
79694;DHT22;69165;52.714;13.200;2023-06-22T05:33:28;20.00;99.90
79694;DHT22;69165;52.714;13.200;2023-06-22T05:35:29;20.10;99.90
79694;DHT22;69165;52.714;13.200;2023-06-22T05:37:30;20.30;99.90
79694;DHT22;69165;52.714;13.200;2023-06-22T05:39:32;20.60;99.90
79694;DHT22;69165;52.714;13.200;2023-06-22T05:41:33;20.60;99.90
79694;DHT22;69165;52.714;13.200;2023-06-22T05:43:35;20.60;99.90
79694;DHT22;69165;52.714;13.200;2023-06-22T05:45:36;20.60;99.90
79694;DHT22;69165;52.714;13.200;2023-06-22T05:47:37;20.60;99.90
79694;DHT22;69165;52.714;13.200;2023-06-22T05:49:38;20.80;99.90
79694;DHT22;69165;52.714;13.200;2023-06-22T05:51:40;21.00;99.90
79694;DHT22;69165;52.714;13.200;2023-06-22T05:53:41;21.30;99.90
79694;DHT22;69165;52.714;13.200;2023-06-22T05:55:43;21.60;99.90
79694;DHT22;69165;52.714;13.200;2023-06-22T05:57:44;21.60;99.90
79694;DHT22;69165;52.714;13.200;2023-06-22T05:59:45;21.70;99.90
79694;DHT22;69165;52.714;13.200;2023-06-22T06:01:47;21.80;99.90
79694;DHT22;69165;52.714;13.200;2023-06-22T06:03:50;21.90;99.90
79694;DHT22;69165;52.714;13.200;2023-06-22T06:05:52;21.90;99.90
79694;DHT22;69165;52.714;13.200;2023-06-22T06:07:53;22.00;99.90
79694;DHT22;69165;52.714;13.200;2023-06-22T06:09:54;22.00;99.90
79694;DHT22;69165;52.714;13.200;2023-06-22T06:11:56;22.10;99.90
79694;DHT22;69165;52.714;13.200;2023-06-22T06:13:57;22.10;99.90
79694;DHT22;69165;52.714;13.200;2023-06-22T06:15:59;22.10;99.90
79694;DHT22;69165;52.714;13.200;2023-06-22T06:18:00;22.10;99.90
79694;DHT22;69165;52.714;13.200;2023-06-22T06:20:01;22.20;99.90
79694;DHT22;69165;52.714;13.200;2023-06-22T06:22:03;22.30;99.90
79694;DHT22;69165;52.714;13.200;2023-06-22T06:24:04;22.30;99.90
79694;DHT22;69165;52.714;13.200;2023-06-22T06:26:05;22.40;99.90
79694;DHT22;69165;52.714;13.200;2023-06-22T06:28:07;22.60;99.90
79694;DHT22;69165;52.714;13.200;2023-06-22T06:30:10;22.50;99.90
79694;DHT22;69165;52.714;13.200;2023-06-22T06:32:11;22.60;99.90
79694;DHT22;69165;52.714;13.200;2023-06-22T06:34:13;22.60;99.90
79694;DHT22;69165;52.714;13.200;2023-06-22T06:36:14;22.70;99.90
79694;DHT22;69165;52.714;13.200;2023-06-22T06:38:16;22.80;99.90
79694;DHT22;69165;52.714;13.200;2023-06-22T06:40:17;22.80;99.90
79694;DHT22;69165;52.714;13.200;2023-06-22T06:42:18;22.80;99.90
79694;DHT22;69165;52.714;13.200;2023-06-22T06:44:20;22.80;99.90
79694;DHT22;69165;52.714;13.200;2023-06-22T06:46:22;22.80;99.90
79694;DHT22;69165;52.714;13.200;2023-06-22T06:48:23;22.80;99.90
79694;DHT22;69165;52.714;13.200;2023-06-22T06:50:25;22.90;99.90
79694;DHT22;69165;52.714;13.200;2023-06-22T06:52:27;22.90;99.90
79694;DHT22;69165;52.714;13.200;2023-06-22T06:54:28;23.10;99.90
79694;DHT22;69165;52.714;13.200;2023-06-22T06:56:30;23.40;99.90
79694;DHT22;69165;52.714;13.200;2023-06-22T06:58:31;23.40;99.90
79694;DHT22;69165;52.714;13.200;2023-06-22T07:00:33;23.80;99.90
79694;DHT22;69165;52.714;13.200;2023-06-22T07:02:35;23.80;99.90
79694;DHT22;69165;52.714;13.200;2023-06-22T07:04:37;24.10;99.90
79694;DHT22;69165;52.714;13.200;2023-06-22T07:06:38;24.10;99.90
79694;DHT22;69165;52.714;13.200;2023-06-22T07:08:39;24.30;99.90
79694;DHT22;69165;52.714;13.200;2023-06-22T07:10:40;24.40;99.90
79694;DHT22;69165;52.714;13.200;2023-06-22T07:12:42;24.50;99.90
79694;DHT22;69165;52.714;13.200;2023-06-22T07:14:43;24.60;99.90
79694;DHT22;69165;52.714;13.200;2023-06-22T07:16:44;24.70;99.90
79694;DHT22;69165;52.714;13.200;2023-06-22T07:18:45;24.80;99.90
79694;DHT22;69165;52.714;13.200;2023-06-22T07:20:47;24.90;99.90
79694;DHT22;69165;52.714;13.200;2023-06-22T07:22:48;24.90;99.90
79694;DHT22;69165;52.714;13.200;2023-06-22T07:24:49;25.10;99.90
79694;DHT22;69165;52.714;13.200;2023-06-22T07:26:50;25.10;99.90
79694;DHT22;69165;52.714;13.200;2023-06-22T07:28:52;25.20;99.90
79694;DHT22;69165;52.714;13.200;2023-06-22T07:30:53;25.20;99.90
79694;DHT22;69165;52.714;13.200;2023-06-22T07:32:55;25.50;99.90
79694;DHT22;69165;52.714;13.200;2023-06-22T07:34:56;25.50;99.90
79694;DHT22;69165;52.714;13.200;2023-06-22T07:36:58;25.70;99.90
79694;DHT22;69165;52.714;13.200;2023-06-22T07:39:00;25.90;99.90
79694;DHT22;69165;52.714;13.200;2023-06-22T07:41:02;25.90;99.90
79694;DHT22;69165;52.714;13.200;2023-06-22T07:43:03;25.90;99.90
79694;DHT22;69165;52.714;13.200;2023-06-22T07:45:04;26.00;99.90
79694;DHT22;69165;52.714;13.200;2023-06-22T07:47:05;26.20;99.90
79694;DHT22;69165;52.714;13.200;2023-06-22T07:49:07;26.20;99.90
79694;DHT22;69165;52.714;13.200;2023-06-22T07:51:08;26.20;99.90
79694;DHT22;69165;52.714;13.200;2023-06-22T07:53:10;26.30;99.90
79694;DHT22;69165;52.714;13.200;2023-06-22T07:55:11;26.20;99.90
79694;DHT22;69165;52.714;13.200;2023-06-22T07:57:13;26.30;99.90
79694;DHT22;69165;52.714;13.200;2023-06-22T07:59:15;26.20;99.90
79694;DHT22;69165;52.714;13.200;2023-06-22T08:01:16;26.20;99.90
79694;DHT22;69165;52.714;13.200;2023-06-22T08:03:17;26.00;99.90
79694;DHT22;69165;52.714;13.200;2023-06-22T08:05:20;26.00;99.90
79694;DHT22;69165;52.714;13.200;2023-06-22T08:07:21;26.00;99.90
79694;DHT22;69165;52.714;13.200;2023-06-22T08:09:22;26.00;99.90
79694;DHT22;69165;52.714;13.200;2023-06-22T08:11:24;25.90;99.90
79694;DHT22;69165;52.714;13.200;2023-06-22T08:13:25;25.90;99.90
79694;DHT22;69165;52.714;13.200;2023-06-22T08:15:26;25.90;99.90
79694;DHT22;69165;52.714;13.200;2023-06-22T08:17:27;25.90;99.90
79694;DHT22;69165;52.714;13.200;2023-06-22T08:19:29;25.90;99.90
79694;DHT22;69165;52.714;13.200;2023-06-22T08:21:30;25.90;99.90
79694;DHT22;69165;52.714;13.200;2023-06-22T08:23:31;25.90;99.90
79694;DHT22;69165;52.714;13.200;2023-06-22T08:25:33;26.00;99.90
79694;DHT22;69165;52.714;13.200;2023-06-22T08:27:34;26.00;99.90
79694;DHT22;69165;52.714;13.200;2023-06-22T08:29:36;26.00;99.90
79694;DHT22;69165;52.714;13.200;2023-06-22T08:31:38;26.10;99.90
79694;DHT22;69165;52.714;13.200;2023-06-22T08:33:39;26.00;99.90
79694;DHT22;69165;52.714;13.200;2023-06-22T08:35:41;26.20;99.90
79694;DHT22;69165;52.714;13.200;2023-06-22T08:37:42;26.20;99.90
79694;DHT22;69165;52.714;13.200;2023-06-22T08:39:44;26.30;99.90
79694;DHT22;69165;52.714;13.200;2023-06-22T08:41:45;26.40;99.90
79694;DHT22;69165;52.714;13.200;2023-06-22T08:43:46;26.50;99.90
79694;DHT22;69165;52.714;13.200;2023-06-22T08:45:47;26.60;99.90
79694;DHT22;69165;52.714;13.200;2023-06-22T08:47:49;26.90;99.90
79694;DHT22;69165;52.714;13.200;2023-06-22T08:49:51;27.00;99.90
79694;DHT22;69165;52.714;13.200;2023-06-22T08:51:53;27.10;99.80
79694;DHT22;69165;52.714;13.200;2023-06-22T08:53:55;27.00;99.70
79694;DHT22;69165;52.714;13.200;2023-06-22T08:55:56;27.10;99.70
79694;DHT22;69165;52.714;13.200;2023-06-22T08:57:57;27.10;99.40
79694;DHT22;69165;52.714;13.200;2023-06-22T08:59:58;27.10;99.30
79694;DHT22;69165;52.714;13.200;2023-06-22T09:02:00;27.20;99.60
79694;DHT22;69165;52.714;13.200;2023-06-22T09:04:01;27.30;99.90
79694;DHT22;69165;52.714;13.200;2023-06-22T09:06:03;27.30;99.30
79694;DHT22;69165;52.714;13.200;2023-06-22T09:08:04;27.30;99.30
79694;DHT22;69165;52.714;13.200;2023-06-22T09:10:06;27.30;98.80
79694;DHT22;69165;52.714;13.200;2023-06-22T09:12:07;27.40;99.40
79694;DHT22;69165;52.714;13.200;2023-06-22T09:14:09;27.40;98.20
79694;DHT22;69165;52.714;13.200;2023-06-22T09:16:10;27.40;98.20
79694;DHT22;69165;52.714;13.200;2023-06-22T09:18:12;27.40;98.10
79694;DHT22;69165;52.714;13.200;2023-06-22T09:20:13;27.50;98.80
79694;DHT22;69165;52.714;13.200;2023-06-22T09:22:14;27.60;98.90
79694;DHT22;69165;52.714;13.200;2023-06-22T09:24:15;27.80;99.20
79694;DHT22;69165;52.714;13.200;2023-06-22T09:26:17;28.00;98.50
79694;DHT22;69165;52.714;13.200;2023-06-22T09:28:18;28.00;97.80
79694;DHT22;69165;52.714;13.200;2023-06-22T09:30:20;28.10;97.80
79694;DHT22;69165;52.714;13.200;2023-06-22T09:32:21;28.00;97.10
79694;DHT22;69165;52.714;13.200;2023-06-22T09:34:22;28.10;98.20
79694;DHT22;69165;52.714;13.200;2023-06-22T09:36:23;28.00;97.70
79694;DHT22;69165;52.714;13.200;2023-06-22T09:38:25;27.90;97.40
79694;DHT22;69165;52.714;13.200;2023-06-22T09:40:27;27.90;96.80
79694;DHT22;69165;52.714;13.200;2023-06-22T09:42:28;27.90;96.80
79694;DHT22;69165;52.714;13.200;2023-06-22T09:44:30;27.90;96.50
79694;DHT22;69165;52.714;13.200;2023-06-22T09:46:31;27.90;96.50
79694;DHT22;69165;52.714;13.200;2023-06-22T09:48:33;27.80;95.40
79694;DHT22;69165;52.714;13.200;2023-06-22T09:50:35;27.80;95.30
79694;DHT22;69165;52.714;13.200;2023-06-22T09:52:36;27.80;96.10
79694;DHT22;69165;52.714;13.200;2023-06-22T09:54:38;27.60;95.80
79694;DHT22;69165;52.714;13.200;2023-06-22T09:56:39;27.50;95.50
79694;DHT22;69165;52.714;13.200;2023-06-22T09:58:42;27.50;96.20
79694;DHT22;69165;52.714;13.200;2023-06-22T10:00:43;27.50;96.90
79694;DHT22;69165;52.714;13.200;2023-06-22T10:02:44;27.50;95.80
79694;DHT22;69165;52.714;13.200;2023-06-22T10:04:45;27.40;96.60
79694;DHT22;69165;52.714;13.200;2023-06-22T10:06:47;27.50;96.70
79694;DHT22;69165;52.714;13.200;2023-06-22T10:08:49;27.60;96.70
79694;DHT22;69165;52.714;13.200;2023-06-22T10:10:50;27.50;96.60
79694;DHT22;69165;52.714;13.200;2023-06-22T10:12:55;27.60;97.30
79694;DHT22;69165;52.714;13.200;2023-06-22T10:14:56;27.80;96.40
79694;DHT22;69165;52.714;13.200;2023-06-22T10:16:58;27.80;97.00
79694;DHT22;69165;52.714;13.200;2023-06-22T10:18:59;27.70;96.10
79694;DHT22;69165;52.714;13.200;2023-06-22T10:21:00;27.60;95.80
79694;DHT22;69165;52.714;13.200;2023-06-22T10:23:01;27.60;96.40
79694;DHT22;69165;52.714;13.200;2023-06-22T10:25:03;27.70;96.90
79694;DHT22;69165;52.714;13.200;2023-06-22T10:27:04;27.90;95.90
79694;DHT22;69165;52.714;13.200;2023-06-22T10:29:06;28.00;95.80
79694;DHT22;69165;52.714;13.200;2023-06-22T10:31:07;28.00;95.60
79694;DHT22;69165;52.714;13.200;2023-06-22T10:33:09;28.20;96.60
79694;DHT22;69165;52.714;13.200;2023-06-22T10:35:10;28.20;95.30
79694;DHT22;69165;52.714;13.200;2023-06-22T10:37:12;28.30;95.40
79694;DHT22;69165;52.714;13.200;2023-06-22T10:39:14;28.30;95.50
79694;DHT22;69165;52.714;13.200;2023-06-22T10:41:15;28.30;95.50
79694;DHT22;69165;52.714;13.200;2023-06-22T10:43:16;28.40;95.30
79694;DHT22;69165;52.714;13.200;2023-06-22T10:45:17;28.50;94.60
79694;DHT22;69165;52.714;13.200;2023-06-22T10:47:19;28.60;95.10
79694;DHT22;69165;52.714;13.200;2023-06-22T10:49:21;28.50;95.00
79694;DHT22;69165;52.714;13.200;2023-06-22T10:51:22;28.60;94.50
79694;DHT22;69165;52.714;13.200;2023-06-22T10:53:23;28.60;94.70
79694;DHT22;69165;52.714;13.200;2023-06-22T11:27:34;29.40;93.40
79694;DHT22;69165;52.714;13.200;2023-06-22T11:29:35;29.50;93.80
79694;DHT22;69165;52.714;13.200;2023-06-22T11:31:37;29.50;93.40
79694;DHT22;69165;52.714;13.200;2023-06-22T11:33:39;29.40;93.20
79694;DHT22;69165;52.714;13.200;2023-06-22T11:35:40;29.40;93.10
79694;DHT22;69165;52.714;13.200;2023-06-22T11:37:41;29.40;93.20
79694;DHT22;69165;52.714;13.200;2023-06-22T11:39:43;29.40;93.70
79694;DHT22;69165;52.714;13.200;2023-06-22T11:41:44;29.30;93.40
79694;DHT22;69165;52.714;13.200;2023-06-22T11:43:46;29.20;94.30
79694;DHT22;69165;52.714;13.200;2023-06-22T11:45:47;29.20;94.30
79694;DHT22;69165;52.714;13.200;2023-06-22T11:47:48;29.10;93.30
79694;DHT22;69165;52.714;13.200;2023-06-22T11:49:50;29.00;93.40
79694;DHT22;69165;52.714;13.200;2023-06-22T11:51:51;29.00;92.90
79694;DHT22;69165;52.714;13.200;2023-06-22T11:53:53;28.80;93.00
79694;DHT22;69165;52.714;13.200;2023-06-22T11:55:53;28.60;93.60
79694;DHT22;69165;52.714;13.200;2023-06-22T11:57:55;28.50;94.00
79694;DHT22;69165;52.714;13.200;2023-06-22T11:59:56;28.50;94.70
79694;DHT22;69165;52.714;13.200;2023-06-22T12:01:57;28.60;93.90
79694;DHT22;69165;52.714;13.200;2023-06-22T12:03:59;28.80;94.50
79694;DHT22;69165;52.714;13.200;2023-06-22T12:06:01;28.80;94.50
79694;DHT22;69165;52.714;13.200;2023-06-22T12:08:03;29.10;94.50
79694;DHT22;69165;52.714;13.200;2023-06-22T12:10:04;29.00;94.50
79694;DHT22;69165;52.714;13.200;2023-06-22T12:12:06;29.20;94.40
79694;DHT22;69165;52.714;13.200;2023-06-22T12:14:08;29.20;93.70
79694;DHT22;69165;52.714;13.200;2023-06-22T12:16:09;29.20;93.70
79694;DHT22;69165;52.714;13.200;2023-06-22T12:18:10;29.20;93.40
79694;DHT22;69165;52.714;13.200;2023-06-22T12:20:12;29.30;93.80
79694;DHT22;69165;52.714;13.200;2023-06-22T12:22:14;29.40;94.60
79694;DHT22;69165;52.714;13.200;2023-06-22T12:24:15;29.30;94.50
79694;DHT22;69165;52.714;13.200;2023-06-22T12:26:16;29.40;93.20
79694;DHT22;69165;52.714;13.200;2023-06-22T12:28:17;29.40;93.40
79694;DHT22;69165;52.714;13.200;2023-06-22T12:30:19;29.40;94.10
79694;DHT22;69165;52.714;13.200;2023-06-22T12:32:21;29.30;94.10
79694;DHT22;69165;52.714;13.200;2023-06-22T12:34:22;29.40;92.80
79694;DHT22;69165;52.714;13.200;2023-06-22T12:36:23;29.40;93.20
79694;DHT22;69165;52.714;13.200;2023-06-22T12:38:24;29.40;93.20
79694;DHT22;69165;52.714;13.200;2023-06-22T12:40:26;29.30;93.40
79694;DHT22;69165;52.714;13.200;2023-06-22T12:42:28;29.40;93.30
79694;DHT22;69165;52.714;13.200;2023-06-22T12:44:30;29.40;94.20
79694;DHT22;69165;52.714;13.200;2023-06-22T12:46:31;29.40;93.80
79694;DHT22;69165;52.714;13.200;2023-06-22T12:48:32;29.50;93.00
79694;DHT22;69165;52.714;13.200;2023-06-22T12:50:34;29.40;92.90
79694;DHT22;69165;52.714;13.200;2023-06-22T12:52:36;29.30;92.60
79694;DHT22;69165;52.714;13.200;2023-06-22T12:54:36;29.20;93.30
79694;DHT22;69165;52.714;13.200;2023-06-22T12:56:37;29.20;92.80
79694;DHT22;69165;52.714;13.200;2023-06-22T12:58:39;29.20;93.30
79694;DHT22;69165;52.714;13.200;2023-06-22T13:00:40;29.30;93.30
79694;DHT22;69165;52.714;13.200;2023-06-22T13:02:41;29.40;93.60
79694;DHT22;69165;52.714;13.200;2023-06-22T13:04:43;29.40;94.20
79694;DHT22;69165;52.714;13.200;2023-06-22T13:06:45;29.30;94.20
79694;DHT22;69165;52.714;13.200;2023-06-22T13:08:46;29.40;93.50
79694;DHT22;69165;52.714;13.200;2023-06-22T13:10:48;29.40;93.40
79694;DHT22;69165;52.714;13.200;2023-06-22T13:12:50;29.40;93.40
79694;DHT22;69165;52.714;13.200;2023-06-22T13:14:51;29.40;93.10
79694;DHT22;69165;52.714;13.200;2023-06-22T13:16:52;29.30;93.60
79694;DHT22;69165;52.714;13.200;2023-06-22T13:18:53;29.30;93.30
79694;DHT22;69165;52.714;13.200;2023-06-22T13:20:55;29.10;92.60
79694;DHT22;69165;52.714;13.200;2023-06-22T13:22:58;29.10;93.20
79694;DHT22;69165;52.714;13.200;2023-06-22T13:24:59;29.10;93.20
79694;DHT22;69165;52.714;13.200;2023-06-22T13:27:00;29.10;93.20
79694;DHT22;69165;52.714;13.200;2023-06-22T13:29:01;29.20;93.50
79694;DHT22;69165;52.714;13.200;2023-06-22T13:31:03;29.40;93.50
79694;DHT22;69165;52.714;13.200;2023-06-22T13:33:04;29.40;92.90
79694;DHT22;69165;52.714;13.200;2023-06-22T13:35:05;29.40;93.10
79694;DHT22;69165;52.714;13.200;2023-06-22T13:37:07;29.20;92.50
79694;DHT22;69165;52.714;13.200;2023-06-22T13:39:09;29.20;92.50
79694;DHT22;69165;52.714;13.200;2023-06-22T13:41:10;29.20;93.10
79694;DHT22;69165;52.714;13.200;2023-06-22T13:43:11;29.20;93.50
79694;DHT22;69165;52.714;13.200;2023-06-22T13:45:13;29.20;93.30
79694;DHT22;69165;52.714;13.200;2023-06-22T13:47:15;29.40;92.90
79694;DHT22;69165;52.714;13.200;2023-06-22T13:49:16;29.30;92.90
79694;DHT22;69165;52.714;13.200;2023-06-22T13:51:18;29.50;93.20
79694;DHT22;69165;52.714;13.200;2023-06-22T13:53:20;29.40;93.40
79694;DHT22;69165;52.714;13.200;2023-06-22T13:55:21;29.40;93.40
79694;DHT22;69165;52.714;13.200;2023-06-22T13:57:22;29.40;93.10
79694;DHT22;69165;52.714;13.200;2023-06-22T13:59:23;29.40;93.20
79694;DHT22;69165;52.714;13.200;2023-06-22T14:01:25;29.20;92.70
79694;DHT22;69165;52.714;13.200;2023-06-22T14:03:26;29.10;93.40
79694;DHT22;69165;52.714;13.200;2023-06-22T14:05:27;29.00;93.30
79694;DHT22;69165;52.714;13.200;2023-06-22T14:07:29;29.10;93.80
79694;DHT22;69165;52.714;13.200;2023-06-22T14:09:31;29.10;93.80
79694;DHT22;69165;52.714;13.200;2023-06-22T14:11:32;29.20;93.70
79694;DHT22;69165;52.714;13.200;2023-06-22T14:13:33;29.30;93.60
79694;DHT22;69165;52.714;13.200;2023-06-22T14:15:34;29.30;93.10
79694;DHT22;69165;52.714;13.200;2023-06-22T14:17:36;29.30;93.50
79694;DHT22;69165;52.714;13.200;2023-06-22T14:19:38;29.30;93.40
79694;DHT22;69165;52.714;13.200;2023-06-22T14:21:39;29.20;93.30
79694;DHT22;69165;52.714;13.200;2023-06-22T14:23:41;29.00;93.40
79694;DHT22;69165;52.714;13.200;2023-06-22T14:25:42;29.10;93.50
79694;DHT22;69165;52.714;13.200;2023-06-22T14:27:44;29.10;93.70
79694;DHT22;69165;52.714;13.200;2023-06-22T14:29:46;29.10;93.80
79694;DHT22;69165;52.714;13.200;2023-06-22T14:31:47;29.10;93.70
79694;DHT22;69165;52.714;13.200;2023-06-22T14:33:48;29.10;93.60
79694;DHT22;69165;52.714;13.200;2023-06-22T14:35:49;29.10;93.20
79694;DHT22;69165;52.714;13.200;2023-06-22T14:37:51;29.10;93.40
79694;DHT22;69165;52.714;13.200;2023-06-22T14:39:52;29.00;93.00
79694;DHT22;69165;52.714;13.200;2023-06-22T14:41:53;28.90;93.40
79694;DHT22;69165;52.714;13.200;2023-06-22T14:43:55;28.70;93.90
79694;DHT22;69165;52.714;13.200;2023-06-22T14:45:56;28.70;93.60
79694;DHT22;69165;52.714;13.200;2023-06-22T14:47:58;28.80;93.80
79694;DHT22;69165;52.714;13.200;2023-06-22T14:49:59;28.80;93.50
79694;DHT22;69165;52.714;13.200;2023-06-22T14:52:01;28.90;93.70
79694;DHT22;69165;52.714;13.200;2023-06-22T14:54:02;29.00;93.80
79694;DHT22;69165;52.714;13.200;2023-06-22T14:56:04;29.00;93.80
79694;DHT22;69165;52.714;13.200;2023-06-22T14:58:05;29.00;94.30
79694;DHT22;69165;52.714;13.200;2023-06-22T15:00:07;29.10;93.80
79694;DHT22;69165;52.714;13.200;2023-06-22T15:02:08;29.10;93.80
79694;DHT22;69165;52.714;13.200;2023-06-22T15:04:09;29.20;93.40
79694;DHT22;69165;52.714;13.200;2023-06-22T15:06:11;29.40;93.90
79694;DHT22;69165;52.714;13.200;2023-06-22T15:08:13;29.40;93.20
79694;DHT22;69165;52.714;13.200;2023-06-22T15:10:14;29.40;93.20
79694;DHT22;69165;52.714;13.200;2023-06-22T15:12:15;29.40;93.50
79694;DHT22;69165;52.714;13.200;2023-06-22T15:14:16;29.30;93.30
79694;DHT22;69165;52.714;13.200;2023-06-22T15:16:19;29.10;94.00
79694;DHT22;69165;52.714;13.200;2023-06-22T15:18:20;29.10;94.00
79694;DHT22;69165;52.714;13.200;2023-06-22T15:20:21;29.00;93.90
79694;DHT22;69165;52.714;13.200;2023-06-22T15:22:22;28.90;94.30
79694;DHT22;69165;52.714;13.200;2023-06-22T15:24:24;28.90;94.30
79694;DHT22;69165;52.714;13.200;2023-06-22T15:26:25;28.90;94.00
79694;DHT22;69165;52.714;13.200;2023-06-22T15:28:28;28.90;94.10
79694;DHT22;69165;52.714;13.200;2023-06-22T15:30:28;28.80;94.10
79694;DHT22;69165;52.714;13.200;2023-06-22T15:32:30;28.90;94.10
79694;DHT22;69165;52.714;13.200;2023-06-22T15:34:31;28.90;93.50
79694;DHT22;69165;52.714;13.200;2023-06-22T15:36:32;28.90;93.70
79694;DHT22;69165;52.714;13.200;2023-06-22T15:40:52;29.00;93.80
79694;DHT22;69165;52.714;13.200;2023-06-22T15:42:54;29.00;93.80
79694;DHT22;69165;52.714;13.200;2023-06-22T15:49:18;28.80;93.60
79694;DHT22;69165;52.714;13.200;2023-06-22T15:51:19;28.80;93.80
79694;DHT22;69165;52.714;13.200;2023-06-22T15:53:34;28.70;93.90
79694;DHT22;69165;52.714;13.200;2023-06-22T15:55:36;28.70;93.90
79694;DHT22;69165;52.714;13.200;2023-06-22T15:57:37;28.70;93.80
79694;DHT22;69165;52.714;13.200;2023-06-22T15:59:40;28.70;94.10
79694;DHT22;69165;52.714;13.200;2023-06-22T16:01:41;28.70;93.30
79694;DHT22;69165;52.714;13.200;2023-06-22T16:03:43;28.70;93.60
79694;DHT22;69165;52.714;13.200;2023-06-22T16:05:44;28.60;93.60
79694;DHT22;69165;52.714;13.200;2023-06-22T16:07:46;28.70;93.80
79694;DHT22;69165;52.714;13.200;2023-06-22T16:09:47;28.70;93.40
79694;DHT22;69165;52.714;13.200;2023-06-22T16:11:48;28.70;93.60
79694;DHT22;69165;52.714;13.200;2023-06-22T16:13:50;28.70;93.30
79694;DHT22;69165;52.714;13.200;2023-06-22T16:15:51;28.60;93.80
79694;DHT22;69165;52.714;13.200;2023-06-22T16:17:52;28.70;93.20
79694;DHT22;69165;52.714;13.200;2023-06-22T16:19:54;28.60;94.00
79694;DHT22;69165;52.714;13.200;2023-06-22T16:21:55;28.50;93.90
79694;DHT22;69165;52.714;13.200;2023-06-22T16:23:57;28.60;93.90
79694;DHT22;69165;52.714;13.200;2023-06-22T16:25:59;28.50;94.00
79694;DHT22;69165;52.714;13.200;2023-06-22T16:28:00;28.50;94.00
79694;DHT22;69165;52.714;13.200;2023-06-22T16:30:01;28.40;93.40
79694;DHT22;69165;52.714;13.200;2023-06-22T16:32:03;28.40;93.60
79694;DHT22;69165;52.714;13.200;2023-06-22T16:34:04;28.30;93.70
79694;DHT22;69165;52.714;13.200;2023-06-22T16:36:05;28.20;93.70
79694;DHT22;69165;52.714;13.200;2023-06-22T16:38:06;28.10;94.10
79694;DHT22;69165;52.714;13.200;2023-06-22T16:40:09;28.10;94.20
79694;DHT22;69165;52.714;13.200;2023-06-22T16:42:10;28.10;94.10
79694;DHT22;69165;52.714;13.200;2023-06-22T16:44:12;28.10;94.40
79694;DHT22;69165;52.714;13.200;2023-06-22T16:46:13;28.00;94.40
79694;DHT22;69165;52.714;13.200;2023-06-22T16:48:14;28.00;94.20
79694;DHT22;69165;52.714;13.200;2023-06-22T16:50:16;27.70;94.00
79694;DHT22;69165;52.714;13.200;2023-06-22T16:52:18;27.70;94.00
79694;DHT22;69165;52.714;13.200;2023-06-22T16:54:19;27.60;94.30
79694;DHT22;69165;52.714;13.200;2023-06-22T16:56:24;27.50;95.10
79694;DHT22;69165;52.714;13.200;2023-06-22T16:58:24;27.40;94.80
79694;DHT22;69165;52.714;13.200;2023-06-22T17:00:25;27.40;94.80
79694;DHT22;69165;52.714;13.200;2023-06-22T17:02:27;27.40;94.80
79694;DHT22;69165;52.714;13.200;2023-06-22T17:04:29;27.30;95.00
79694;DHT22;69165;52.714;13.200;2023-06-22T17:06:30;27.30;94.90
79694;DHT22;69165;52.714;13.200;2023-06-22T17:08:32;27.30;95.00
79694;DHT22;69165;52.714;13.200;2023-06-22T17:10:33;27.30;95.00
79694;DHT22;69165;52.714;13.200;2023-06-22T17:12:34;27.30;94.80
79694;DHT22;69165;52.714;13.200;2023-06-22T17:14:37;27.20;94.90
79694;DHT22;69165;52.714;13.200;2023-06-22T17:16:37;27.20;94.60
79694;DHT22;69165;52.714;13.200;2023-06-22T17:18:38;27.20;94.70
79694;DHT22;69165;52.714;13.200;2023-06-22T17:20:40;27.10;95.00
79694;DHT22;69165;52.714;13.200;2023-06-22T17:22:43;27.10;95.00
79694;DHT22;69165;52.714;13.200;2023-06-22T17:24:43;27.10;94.80
79694;DHT22;69165;52.714;13.200;2023-06-22T17:26:48;27.10;95.00
79694;DHT22;69165;52.714;13.200;2023-06-22T17:28:50;27.00;95.00
79694;DHT22;69165;52.714;13.200;2023-06-22T17:31:07;27.00;95.20
79694;DHT22;69165;52.714;13.200;2023-06-22T17:32:52;27.00;95.00
79694;DHT22;69165;52.714;13.200;2023-06-22T17:34:54;27.00;94.60
79694;DHT22;69165;52.714;13.200;2023-06-22T17:36:55;26.90;94.80
79694;DHT22;69165;52.714;13.200;2023-06-22T17:38:58;26.90;94.80
79694;DHT22;69165;52.714;13.200;2023-06-22T17:41:00;26.80;94.80
79694;DHT22;69165;52.714;13.200;2023-06-22T17:43:02;26.80;94.80
79694;DHT22;69165;52.714;13.200;2023-06-22T17:45:03;26.80;95.30
79694;DHT22;69165;52.714;13.200;2023-06-22T17:47:05;26.80;95.20
79694;DHT22;69165;52.714;13.200;2023-06-22T17:49:07;26.70;95.10
79694;DHT22;69165;52.714;13.200;2023-06-22T17:51:09;26.70;95.20
79694;DHT22;69165;52.714;13.200;2023-06-22T17:53:10;26.70;95.20
79694;DHT22;69165;52.714;13.200;2023-06-22T17:55:11;26.70;95.10
79694;DHT22;69165;52.714;13.200;2023-06-22T17:57:14;26.60;95.00
79694;DHT22;69165;52.714;13.200;2023-06-22T17:59:16;26.60;94.90
79694;DHT22;69165;52.714;13.200;2023-06-22T18:01:27;26.50;95.20
79694;DHT22;69165;52.714;13.200;2023-06-22T18:03:22;26.60;95.20
79694;DHT22;69165;52.714;13.200;2023-06-22T18:07:27;26.50;95.40
79694;DHT22;69165;52.714;13.200;2023-06-22T18:09:28;26.50;95.40
79694;DHT22;69165;52.714;13.200;2023-06-22T18:11:31;26.40;95.40
79694;DHT22;69165;52.714;13.200;2023-06-22T18:13:32;26.40;95.10
79694;DHT22;69165;52.714;13.200;2023-06-22T18:15:33;26.40;95.20